sensor_id;sensor_type;location;lat;lon;timestamp;P1;durP1;ratioP1;P2;durP2;ratioP2
25123;SDS011;13104;51.030;4.686;2023-07-02T00:00:23;30.10;;;15.32;;
25123;SDS011;13104;51.030;4.686;2023-07-02T00:02:49;35.83;;;15.20;;
25123;SDS011;13104;51.030;4.686;2023-07-02T00:05:15;35.70;;;15.23;;
25123;SDS011;13104;51.030;4.686;2023-07-02T00:07:42;35.78;;;15.30;;
25123;SDS011;13104;51.030;4.686;2023-07-02T00:10:09;39.47;;;16.73;;
25123;SDS011;13104;51.030;4.686;2023-07-02T00:12:36;32.00;;;15.73;;
25123;SDS011;13104;51.030;4.686;2023-07-02T00:15:02;33.90;;;15.60;;
25123;SDS011;13104;51.030;4.686;2023-07-02T00:17:29;37.25;;;16.13;;
25123;SDS011;13104;51.030;4.686;2023-07-02T00:19:55;41.03;;;16.20;;
25123;SDS011;13104;51.030;4.686;2023-07-02T00:22:21;34.63;;;15.20;;
25123;SDS011;13104;51.030;4.686;2023-07-02T00:24:47;39.00;;;16.08;;
25123;SDS011;13104;51.030;4.686;2023-07-02T00:27:15;36.60;;;17.00;;
25123;SDS011;13104;51.030;4.686;2023-07-02T00:29:41;37.25;;;17.00;;
25123;SDS011;13104;51.030;4.686;2023-07-02T00:32:07;41.28;;;17.75;;
25123;SDS011;13104;51.030;4.686;2023-07-02T00:34:33;37.63;;;16.55;;
25123;SDS011;13104;51.030;4.686;2023-07-02T00:36:59;34.83;;;16.80;;
25123;SDS011;13104;51.030;4.686;2023-07-02T00:39:25;44.53;;;16.67;;
25123;SDS011;13104;51.030;4.686;2023-07-02T00:41:52;37.40;;;18.45;;
25123;SDS011;13104;51.030;4.686;2023-07-02T00:44:18;33.10;;;16.90;;
25123;SDS011;13104;51.030;4.686;2023-07-02T00:46:44;39.15;;;17.30;;
25123;SDS011;13104;51.030;4.686;2023-07-02T00:49:11;38.80;;;17.77;;
25123;SDS011;13104;51.030;4.686;2023-07-02T00:51:37;38.85;;;17.23;;
25123;SDS011;13104;51.030;4.686;2023-07-02T00:54:03;42.38;;;17.08;;
25123;SDS011;13104;51.030;4.686;2023-07-02T00:56:29;39.67;;;17.52;;
25123;SDS011;13104;51.030;4.686;2023-07-02T00:58:56;38.92;;;17.30;;
25123;SDS011;13104;51.030;4.686;2023-07-02T01:01:24;43.65;;;18.48;;
25123;SDS011;13104;51.030;4.686;2023-07-02T01:03:58;40.30;;;18.35;;
25123;SDS011;13104;51.030;4.686;2023-07-02T01:06:25;29.15;;;12.50;;
25123;SDS011;13104;51.030;4.686;2023-07-02T01:08:55;43.13;;;18.15;;
25123;SDS011;13104;51.030;4.686;2023-07-02T01:11:25;38.33;;;17.88;;
25123;SDS011;13104;51.030;4.686;2023-07-02T01:13:53;40.30;;;18.48;;
25123;SDS011;13104;51.030;4.686;2023-07-02T01:16:20;42.00;;;18.90;;
25123;SDS011;13104;51.030;4.686;2023-07-02T01:18:48;44.03;;;18.83;;
25123;SDS011;13104;51.030;4.686;2023-07-02T01:21:15;44.17;;;18.20;;
25123;SDS011;13104;51.030;4.686;2023-07-02T01:23:42;38.42;;;19.25;;
25123;SDS011;13104;51.030;4.686;2023-07-02T01:26:08;46.75;;;19.85;;
25123;SDS011;13104;51.030;4.686;2023-07-02T01:28:35;41.20;;;18.60;;
25123;SDS011;13104;51.030;4.686;2023-07-02T01:31:04;44.90;;;19.08;;
25123;SDS011;13104;51.030;4.686;2023-07-02T01:33:33;44.65;;;19.63;;
25123;SDS011;13104;51.030;4.686;2023-07-02T01:35:59;45.15;;;19.60;;
25123;SDS011;13104;51.030;4.686;2023-07-02T01:38:25;40.70;;;18.67;;
25123;SDS011;13104;51.030;4.686;2023-07-02T01:40:52;43.55;;;19.52;;
25123;SDS011;13104;51.030;4.686;2023-07-02T01:43:18;39.80;;;19.33;;
25123;SDS011;13104;51.030;4.686;2023-07-02T01:45:44;44.85;;;19.73;;
25123;SDS011;13104;51.030;4.686;2023-07-02T01:48:10;42.63;;;19.08;;
25123;SDS011;13104;51.030;4.686;2023-07-02T01:50:36;39.97;;;18.67;;
25123;SDS011;13104;51.030;4.686;2023-07-02T01:53:03;49.75;;;20.02;;
25123;SDS011;13104;51.030;4.686;2023-07-02T01:55:29;47.75;;;20.23;;
25123;SDS011;13104;51.030;4.686;2023-07-02T01:57:55;46.15;;;20.02;;
25123;SDS011;13104;51.030;4.686;2023-07-02T02:00:21;43.35;;;19.73;;
25123;SDS011;13104;51.030;4.686;2023-07-02T02:02:47;42.25;;;19.55;;
25123;SDS011;13104;51.030;4.686;2023-07-02T02:05:13;48.20;;;20.55;;
25123;SDS011;13104;51.030;4.686;2023-07-02T02:07:39;43.58;;;20.10;;
25123;SDS011;13104;51.030;4.686;2023-07-02T02:10:06;49.30;;;20.85;;
25123;SDS011;13104;51.030;4.686;2023-07-02T02:12:34;47.30;;;21.17;;
25123;SDS011;13104;51.030;4.686;2023-07-02T02:15:00;52.08;;;21.48;;
25123;SDS011;13104;51.030;4.686;2023-07-02T02:17:26;51.70;;;20.23;;
25123;SDS011;13104;51.030;4.686;2023-07-02T02:19:52;48.33;;;21.02;;
25123;SDS011;13104;51.030;4.686;2023-07-02T02:22:18;46.08;;;20.73;;
25123;SDS011;13104;51.030;4.686;2023-07-02T02:24:44;48.38;;;21.20;;
25123;SDS011;13104;51.030;4.686;2023-07-02T02:27:11;53.38;;;21.85;;
25123;SDS011;13104;51.030;4.686;2023-07-02T02:29:37;43.88;;;20.08;;
25123;SDS011;13104;51.030;4.686;2023-07-02T02:32:03;47.47;;;21.52;;
25123;SDS011;13104;51.030;4.686;2023-07-02T02:34:29;43.40;;;21.25;;
25123;SDS011;13104;51.030;4.686;2023-07-02T02:36:55;49.55;;;21.85;;
25123;SDS011;13104;51.030;4.686;2023-07-02T02:39:21;54.05;;;22.60;;
25123;SDS011;13104;51.030;4.686;2023-07-02T02:41:48;54.03;;;21.90;;
25123;SDS011;13104;51.030;4.686;2023-07-02T02:44:14;50.53;;;21.77;;
25123;SDS011;13104;51.030;4.686;2023-07-02T02:46:40;49.42;;;21.90;;
25123;SDS011;13104;51.030;4.686;2023-07-02T02:49:07;45.78;;;21.88;;
25123;SDS011;13104;51.030;4.686;2023-07-02T02:51:33;48.58;;;21.67;;
25123;SDS011;13104;51.030;4.686;2023-07-02T02:53:59;57.50;;;22.58;;
25123;SDS011;13104;51.030;4.686;2023-07-02T02:56:25;46.55;;;21.27;;
25123;SDS011;13104;51.030;4.686;2023-07-02T02:58:51;51.03;;;22.23;;
25123;SDS011;13104;51.030;4.686;2023-07-02T03:01:19;49.10;;;22.60;;
25123;SDS011;13104;51.030;4.686;2023-07-02T03:03:45;50.28;;;22.48;;
25123;SDS011;13104;51.030;4.686;2023-07-02T03:06:11;49.78;;;22.05;;
25123;SDS011;13104;51.030;4.686;2023-07-02T03:08:38;56.50;;;21.95;;
25123;SDS011;13104;51.030;4.686;2023-07-02T03:11:04;47.05;;;22.48;;
25123;SDS011;13104;51.030;4.686;2023-07-02T03:13:30;47.65;;;22.23;;
25123;SDS011;13104;51.030;4.686;2023-07-02T03:15:57;43.67;;;22.27;;
25123;SDS011;13104;51.030;4.686;2023-07-02T03:18:23;56.00;;;23.40;;
25123;SDS011;13104;51.030;4.686;2023-07-02T03:20:49;49.28;;;22.83;;
25123;SDS011;13104;51.030;4.686;2023-07-02T03:23:15;57.47;;;22.88;;
25123;SDS011;13104;51.030;4.686;2023-07-02T03:25:41;46.63;;;21.85;;
25123;SDS011;13104;51.030;4.686;2023-07-02T03:28:07;57.15;;;24.35;;
25123;SDS011;13104;51.030;4.686;2023-07-02T03:30:34;57.17;;;22.38;;
25123;SDS011;13104;51.030;4.686;2023-07-02T03:33:00;58.80;;;23.13;;
25123;SDS011;13104;51.030;4.686;2023-07-02T03:35:26;51.00;;;22.23;;
25123;SDS011;13104;51.030;4.686;2023-07-02T03:37:52;50.40;;;22.83;;
25123;SDS011;13104;51.030;4.686;2023-07-02T03:40:18;57.97;;;23.45;;
25123;SDS011;13104;51.030;4.686;2023-07-02T03:42:45;56.67;;;23.30;;
25123;SDS011;13104;51.030;4.686;2023-07-02T03:45:11;50.50;;;23.25;;
25123;SDS011;13104;51.030;4.686;2023-07-02T03:47:37;58.08;;;23.70;;
25123;SDS011;13104;51.030;4.686;2023-07-02T03:50:03;53.72;;;23.67;;
25123;SDS011;13104;51.030;4.686;2023-07-02T03:52:29;59.50;;;24.00;;
25123;SDS011;13104;51.030;4.686;2023-07-02T03:54:55;55.28;;;24.52;;
25123;SDS011;13104;51.030;4.686;2023-07-02T03:57:21;60.55;;;24.58;;
25123;SDS011;13104;51.030;4.686;2023-07-02T03:59:47;58.15;;;24.05;;
25123;SDS011;13104;51.030;4.686;2023-07-02T04:02:13;56.25;;;23.77;;
25123;SDS011;13104;51.030;4.686;2023-07-02T04:04:40;63.83;;;25.35;;
25123;SDS011;13104;51.030;4.686;2023-07-02T04:07:06;55.85;;;24.50;;
25123;SDS011;13104;51.030;4.686;2023-07-02T04:09:32;59.22;;;23.55;;
25123;SDS011;13104;51.030;4.686;2023-07-02T04:11:59;57.00;;;23.42;;
25123;SDS011;13104;51.030;4.686;2023-07-02T04:14:26;57.03;;;24.42;;
25123;SDS011;13104;51.030;4.686;2023-07-02T04:16:52;54.20;;;24.23;;
25123;SDS011;13104;51.030;4.686;2023-07-02T04:19:18;61.42;;;24.80;;
25123;SDS011;13104;51.030;4.686;2023-07-02T04:21:44;54.47;;;23.55;;
25123;SDS011;13104;51.030;4.686;2023-07-02T04:24:11;60.33;;;26.08;;
25123;SDS011;13104;51.030;4.686;2023-07-02T04:26:37;59.05;;;25.58;;
25123;SDS011;13104;51.030;4.686;2023-07-02T04:29:07;61.10;;;24.70;;
25123;SDS011;13104;51.030;4.686;2023-07-02T04:31:33;57.03;;;24.63;;
25123;SDS011;13104;51.030;4.686;2023-07-02T04:33:59;59.88;;;25.63;;
25123;SDS011;13104;51.030;4.686;2023-07-02T04:36:26;54.78;;;25.13;;
25123;SDS011;13104;51.030;4.686;2023-07-02T04:38:53;67.45;;;26.00;;
25123;SDS011;13104;51.030;4.686;2023-07-02T04:41:19;58.58;;;23.88;;
25123;SDS011;13104;51.030;4.686;2023-07-02T04:43:45;54.28;;;23.17;;
25123;SDS011;13104;51.030;4.686;2023-07-02T04:46:11;60.25;;;25.65;;
25123;SDS011;13104;51.030;4.686;2023-07-02T04:48:38;64.18;;;25.42;;
25123;SDS011;13104;51.030;4.686;2023-07-02T04:51:04;55.70;;;24.42;;
25123;SDS011;13104;51.030;4.686;2023-07-02T04:53:30;55.85;;;23.13;;
25123;SDS011;13104;51.030;4.686;2023-07-02T04:55:57;65.85;;;25.95;;
25123;SDS011;13104;51.030;4.686;2023-07-02T04:58:23;60.13;;;24.25;;
25123;SDS011;13104;51.030;4.686;2023-07-02T05:00:49;59.92;;;24.80;;
25123;SDS011;13104;51.030;4.686;2023-07-02T05:03:15;63.50;;;24.85;;
25123;SDS011;13104;51.030;4.686;2023-07-02T05:05:41;56.50;;;24.13;;
25123;SDS011;13104;51.030;4.686;2023-07-02T05:08:07;56.08;;;25.20;;
25123;SDS011;13104;51.030;4.686;2023-07-02T05:10:33;64.93;;;25.75;;
25123;SDS011;13104;51.030;4.686;2023-07-02T05:12:59;59.78;;;25.42;;
25123;SDS011;13104;51.030;4.686;2023-07-02T05:15:25;60.28;;;25.50;;
25123;SDS011;13104;51.030;4.686;2023-07-02T05:17:51;63.70;;;25.70;;
25123;SDS011;13104;51.030;4.686;2023-07-02T05:20:17;61.67;;;25.48;;
25123;SDS011;13104;51.030;4.686;2023-07-02T05:22:44;62.60;;;26.85;;
25123;SDS011;13104;51.030;4.686;2023-07-02T05:25:10;72.60;;;27.00;;
25123;SDS011;13104;51.030;4.686;2023-07-02T05:27:36;66.25;;;27.65;;
25123;SDS011;13104;51.030;4.686;2023-07-02T05:30:03;69.65;;;26.13;;
25123;SDS011;13104;51.030;4.686;2023-07-02T05:32:29;65.35;;;26.77;;
25123;SDS011;13104;51.030;4.686;2023-07-02T05:34:55;66.45;;;26.35;;
25123;SDS011;13104;51.030;4.686;2023-07-02T05:37:21;66.22;;;26.33;;
25123;SDS011;13104;51.030;4.686;2023-07-02T05:39:48;75.90;;;27.55;;
25123;SDS011;13104;51.030;4.686;2023-07-02T05:42:14;63.03;;;26.67;;
25123;SDS011;13104;51.030;4.686;2023-07-02T05:44:40;66.60;;;26.77;;
25123;SDS011;13104;51.030;4.686;2023-07-02T05:47:07;74.15;;;27.80;;
25123;SDS011;13104;51.030;4.686;2023-07-02T05:49:33;68.07;;;26.10;;
25123;SDS011;13104;51.030;4.686;2023-07-02T05:51:59;63.20;;;26.83;;
25123;SDS011;13104;51.030;4.686;2023-07-02T05:54:25;63.88;;;27.52;;
25123;SDS011;13104;51.030;4.686;2023-07-02T05:56:51;71.20;;;26.85;;
25123;SDS011;13104;51.030;4.686;2023-07-02T05:59:17;80.55;;;28.00;;
25123;SDS011;13104;51.030;4.686;2023-07-02T06:01:44;65.20;;;26.83;;
25123;SDS011;13104;51.030;4.686;2023-07-02T06:04:10;71.15;;;25.75;;
25123;SDS011;13104;51.030;4.686;2023-07-02T06:06:37;75.70;;;28.15;;
25123;SDS011;13104;51.030;4.686;2023-07-02T06:09:03;62.47;;;26.05;;
25123;SDS011;13104;51.030;4.686;2023-07-02T06:11:30;58.25;;;26.17;;
25123;SDS011;13104;51.030;4.686;2023-07-02T06:13:56;62.70;;;25.98;;
25123;SDS011;13104;51.030;4.686;2023-07-02T06:16:22;64.53;;;25.40;;
25123;SDS011;13104;51.030;4.686;2023-07-02T06:18:48;61.67;;;26.05;;
25123;SDS011;13104;51.030;4.686;2023-07-02T06:21:14;65.70;;;26.38;;
25123;SDS011;13104;51.030;4.686;2023-07-02T06:23:43;66.80;;;27.30;;
25123;SDS011;13104;51.030;4.686;2023-07-02T06:26:10;65.78;;;26.02;;
25123;SDS011;13104;51.030;4.686;2023-07-02T06:28:36;68.72;;;26.08;;
25123;SDS011;13104;51.030;4.686;2023-07-02T06:31:02;60.15;;;24.73;;
25123;SDS011;13104;51.030;4.686;2023-07-02T06:33:28;60.35;;;24.90;;
25123;SDS011;13104;51.030;4.686;2023-07-02T06:35:54;61.10;;;25.67;;
25123;SDS011;13104;51.030;4.686;2023-07-02T06:38:20;56.88;;;24.65;;
25123;SDS011;13104;51.030;4.686;2023-07-02T06:40:46;63.65;;;26.45;;
25123;SDS011;13104;51.030;4.686;2023-07-02T06:43:12;64.68;;;26.25;;
25123;SDS011;13104;51.030;4.686;2023-07-02T06:45:38;63.22;;;25.13;;
25123;SDS011;13104;51.030;4.686;2023-07-02T06:48:04;60.72;;;24.67;;
25123;SDS011;13104;51.030;4.686;2023-07-02T06:50:31;61.38;;;24.77;;
25123;SDS011;13104;51.030;4.686;2023-07-02T06:52:57;59.63;;;24.58;;
25123;SDS011;13104;51.030;4.686;2023-07-02T06:55:23;60.33;;;24.85;;
25123;SDS011;13104;51.030;4.686;2023-07-02T06:57:49;71.75;;;26.10;;
25123;SDS011;13104;51.030;4.686;2023-07-02T07:00:15;58.38;;;24.60;;
25123;SDS011;13104;51.030;4.686;2023-07-02T07:02:41;59.05;;;24.13;;
25123;SDS011;13104;51.030;4.686;2023-07-02T07:05:07;54.67;;;22.40;;
25123;SDS011;13104;51.030;4.686;2023-07-02T07:07:34;50.92;;;21.40;;
25123;SDS011;13104;51.030;4.686;2023-07-02T07:10:00;54.15;;;21.83;;
25123;SDS011;13104;51.030;4.686;2023-07-02T07:12:26;54.30;;;21.33;;
25123;SDS011;13104;51.030;4.686;2023-07-02T07:14:53;52.15;;;20.65;;
25123;SDS011;13104;51.030;4.686;2023-07-02T07:17:19;52.80;;;20.58;;
25123;SDS011;13104;51.030;4.686;2023-07-02T07:19:45;53.60;;;20.17;;
25123;SDS011;13104;51.030;4.686;2023-07-02T07:22:11;47.75;;;18.27;;
25123;SDS011;13104;51.030;4.686;2023-07-02T07:24:37;41.92;;;16.92;;
25123;SDS011;13104;51.030;4.686;2023-07-02T07:27:03;42.28;;;17.52;;
25123;SDS011;13104;51.030;4.686;2023-07-02T07:29:29;39.72;;;16.25;;
25123;SDS011;13104;51.030;4.686;2023-07-02T07:31:55;38.10;;;16.05;;
25123;SDS011;13104;51.030;4.686;2023-07-02T07:34:21;40.38;;;14.32;;
25123;SDS011;13104;51.030;4.686;2023-07-02T07:36:47;35.03;;;14.75;;
25123;SDS011;13104;51.030;4.686;2023-07-02T07:39:13;37.77;;;14.37;;
25123;SDS011;13104;51.030;4.686;2023-07-02T07:41:40;35.90;;;13.57;;
25123;SDS011;13104;51.030;4.686;2023-07-02T07:44:06;35.85;;;14.05;;
25123;SDS011;13104;51.030;4.686;2023-07-02T07:46:32;30.58;;;13.27;;
25123;SDS011;13104;51.030;4.686;2023-07-02T07:48:58;32.13;;;13.35;;
25123;SDS011;13104;51.030;4.686;2023-07-02T07:51:24;33.10;;;12.75;;
25123;SDS011;13104;51.030;4.686;2023-07-02T07:53:50;31.52;;;13.02;;
25123;SDS011;13104;51.030;4.686;2023-07-02T07:56:16;33.08;;;12.10;;
25123;SDS011;13104;51.030;4.686;2023-07-02T07:58:42;27.23;;;11.63;;
25123;SDS011;13104;51.030;4.686;2023-07-02T08:01:08;30.38;;;11.77;;
25123;SDS011;13104;51.030;4.686;2023-07-02T08:03:36;28.95;;;11.35;;
25123;SDS011;13104;51.030;4.686;2023-07-02T08:06:03;27.10;;;10.85;;
25123;SDS011;13104;51.030;4.686;2023-07-02T08:08:29;26.80;;;9.50;;
25123;SDS011;13104;51.030;4.686;2023-07-02T08:10:56;30.88;;;10.38;;
25123;SDS011;13104;51.030;4.686;2023-07-02T08:13:22;22.55;;;9.32;;
25123;SDS011;13104;51.030;4.686;2023-07-02T08:15:48;27.45;;;9.15;;
25123;SDS011;13104;51.030;4.686;2023-07-02T08:18:14;23.60;;;8.82;;
25123;SDS011;13104;51.030;4.686;2023-07-02T08:20:40;19.00;;;8.35;;
25123;SDS011;13104;51.030;4.686;2023-07-02T08:23:06;24.55;;;7.93;;
25123;SDS011;13104;51.030;4.686;2023-07-02T08:25:32;14.57;;;7.05;;
25123;SDS011;13104;51.030;4.686;2023-07-02T08:27:58;16.48;;;6.82;;
25123;SDS011;13104;51.030;4.686;2023-07-02T08:30:25;18.63;;;6.53;;
25123;SDS011;13104;51.030;4.686;2023-07-02T08:32:51;22.50;;;6.90;;
25123;SDS011;13104;51.030;4.686;2023-07-02T08:35:19;14.57;;;6.32;;
25123;SDS011;13104;51.030;4.686;2023-07-02T08:37:45;17.00;;;6.80;;
25123;SDS011;13104;51.030;4.686;2023-07-02T08:40:18;15.30;;;6.20;;
25123;SDS011;13104;51.030;4.686;2023-07-02T08:42:44;17.52;;;6.78;;
25123;SDS011;13104;51.030;4.686;2023-07-02T08:45:12;17.35;;;7.22;;
25123;SDS011;13104;51.030;4.686;2023-07-02T08:47:39;21.83;;;7.50;;
25123;SDS011;13104;51.030;4.686;2023-07-02T08:50:06;17.23;;;6.72;;
25123;SDS011;13104;51.030;4.686;2023-07-02T08:52:32;16.23;;;6.82;;
25123;SDS011;13104;51.030;4.686;2023-07-02T08:54:58;20.75;;;7.00;;
25123;SDS011;13104;51.030;4.686;2023-07-02T08:57:24;18.70;;;7.70;;
25123;SDS011;13104;51.030;4.686;2023-07-02T08:59:51;19.08;;;7.80;;
25123;SDS011;13104;51.030;4.686;2023-07-02T09:02:17;23.88;;;7.30;;
25123;SDS011;13104;51.030;4.686;2023-07-02T09:04:43;18.42;;;7.13;;
25123;SDS011;13104;51.030;4.686;2023-07-02T09:07:10;20.58;;;7.72;;
25123;SDS011;13104;51.030;4.686;2023-07-02T09:12:21;20.65;;;7.63;;
25123;SDS011;13104;51.030;4.686;2023-07-02T09:14:53;19.38;;;7.53;;
25123;SDS011;13104;51.030;4.686;2023-07-02T09:17:20;22.85;;;7.40;;
25123;SDS011;13104;51.030;4.686;2023-07-02T09:19:50;22.88;;;8.40;;
25123;SDS011;13104;51.030;4.686;2023-07-02T09:22:16;17.52;;;6.82;;
25123;SDS011;13104;51.030;4.686;2023-07-02T09:24:50;26.05;;;8.63;;
25123;SDS011;13104;51.030;4.686;2023-07-02T09:27:18;21.30;;;7.85;;
25123;SDS011;13104;51.030;4.686;2023-07-02T09:29:49;22.88;;;8.05;;
25123;SDS011;13104;51.030;4.686;2023-07-02T09:32:23;23.52;;;8.40;;
25123;SDS011;13104;51.030;4.686;2023-07-02T09:34:49;22.15;;;9.25;;
25123;SDS011;13104;51.030;4.686;2023-07-02T09:37:15;24.52;;;9.02;;
25123;SDS011;13104;51.030;4.686;2023-07-02T09:39:42;24.48;;;8.82;;
25123;SDS011;13104;51.030;4.686;2023-07-02T09:42:08;28.00;;;9.60;;
25123;SDS011;13104;51.030;4.686;2023-07-02T09:44:35;25.02;;;10.02;;
25123;SDS011;13104;51.030;4.686;2023-07-02T09:47:05;22.85;;;9.80;;
25123;SDS011;13104;51.030;4.686;2023-07-02T09:49:32;27.42;;;10.68;;
25123;SDS011;13104;51.030;4.686;2023-07-02T09:52:03;29.23;;;10.55;;
25123;SDS011;13104;51.030;4.686;2023-07-02T09:54:29;25.08;;;10.60;;
25123;SDS011;13104;51.030;4.686;2023-07-02T09:56:56;26.00;;;9.85;;
25123;SDS011;13104;51.030;4.686;2023-07-02T09:59:22;26.13;;;10.45;;
25123;SDS011;13104;51.030;4.686;2023-07-02T10:01:49;28.70;;;10.20;;
25123;SDS011;13104;51.030;4.686;2023-07-02T10:04:17;27.50;;;10.90;;
25123;SDS011;13104;51.030;4.686;2023-07-02T10:07:01;23.95;;;10.27;;
25123;SDS011;13104;51.030;4.686;2023-07-02T10:09:34;25.20;;;10.37;;
25123;SDS011;13104;51.030;4.686;2023-07-02T10:12:01;25.35;;;10.30;;
25123;SDS011;13104;51.030;4.686;2023-07-02T10:14:39;26.05;;;10.85;;
25123;SDS011;13104;51.030;4.686;2023-07-02T10:17:06;25.88;;;11.25;;
25123;SDS011;13104;51.030;4.686;2023-07-02T10:19:32;29.83;;;10.77;;
25123;SDS011;13104;51.030;4.686;2023-07-02T10:22:01;27.83;;;10.50;;
25123;SDS011;13104;51.030;4.686;2023-07-02T10:24:28;28.88;;;11.18;;
25123;SDS011;13104;51.030;4.686;2023-07-02T10:26:58;25.02;;;10.35;;
25123;SDS011;13104;51.030;4.686;2023-07-02T10:29:25;25.80;;;11.10;;
25123;SDS011;13104;51.030;4.686;2023-07-02T10:31:52;28.20;;;11.07;;
25123;SDS011;13104;51.030;4.686;2023-07-02T10:34:34;29.58;;;11.35;;
25123;SDS011;13104;51.030;4.686;2023-07-02T10:37:00;28.75;;;11.43;;
25123;SDS011;13104;51.030;4.686;2023-07-02T10:39:30;27.75;;;11.23;;
25123;SDS011;13104;51.030;4.686;2023-07-02T10:42:06;27.27;;;10.85;;
25123;SDS011;13104;51.030;4.686;2023-07-02T10:44:33;30.08;;;11.77;;
25123;SDS011;13104;51.030;4.686;2023-07-02T10:46:59;25.63;;;10.68;;
25123;SDS011;13104;51.030;4.686;2023-07-02T10:49:32;32.60;;;11.20;;
25123;SDS011;13104;51.030;4.686;2023-07-02T10:51:58;27.83;;;10.35;;
25123;SDS011;13104;51.030;4.686;2023-07-02T10:54:25;26.98;;;10.63;;
25123;SDS011;13104;51.030;4.686;2023-07-02T10:56:56;28.73;;;10.80;;
25123;SDS011;13104;51.030;4.686;2023-07-02T10:59:25;27.80;;;10.68;;
25123;SDS011;13104;51.030;4.686;2023-07-02T11:01:51;31.48;;;10.50;;
25123;SDS011;13104;51.030;4.686;2023-07-02T11:04:17;28.73;;;10.50;;
25123;SDS011;13104;51.030;4.686;2023-07-02T11:06:44;25.20;;;9.23;;
25123;SDS011;13104;51.030;4.686;2023-07-02T11:09:17;31.88;;;10.30;;
25123;SDS011;13104;51.030;4.686;2023-07-02T11:11:51;27.33;;;9.23;;
25123;SDS011;13104;51.030;4.686;2023-07-02T11:14:30;23.45;;;9.40;;
25123;SDS011;13104;51.030;4.686;2023-07-02T11:16:57;19.60;;;9.13;;
25123;SDS011;13104;51.030;4.686;2023-07-02T11:19:23;20.63;;;9.30;;
25123;SDS011;13104;51.030;4.686;2023-07-02T11:21:50;26.38;;;9.63;;
25123;SDS011;13104;51.030;4.686;2023-07-02T11:24:25;32.20;;;10.32;;
25123;SDS011;13104;51.030;4.686;2023-07-02T11:26:52;22.42;;;9.57;;
25123;SDS011;13104;51.030;4.686;2023-07-02T11:29:18;29.83;;;10.98;;
25123;SDS011;13104;51.030;4.686;2023-07-02T11:31:44;32.15;;;10.90;;
25123;SDS011;13104;51.030;4.686;2023-07-02T11:34:11;27.88;;;9.77;;
25123;SDS011;13104;51.030;4.686;2023-07-02T11:36:37;30.92;;;10.50;;
25123;SDS011;13104;51.030;4.686;2023-07-02T11:39:03;27.33;;;11.52;;
25123;SDS011;13104;51.030;4.686;2023-07-02T11:41:36;28.13;;;10.50;;
25123;SDS011;13104;51.030;4.686;2023-07-02T11:44:03;26.95;;;10.38;;
25123;SDS011;13104;51.030;4.686;2023-07-02T11:46:29;26.80;;;10.27;;
25123;SDS011;13104;51.030;4.686;2023-07-02T11:48:55;26.95;;;10.52;;
25123;SDS011;13104;51.030;4.686;2023-07-02T11:51:21;24.55;;;10.32;;
25123;SDS011;13104;51.030;4.686;2023-07-02T11:53:47;26.92;;;9.88;;
25123;SDS011;13104;51.030;4.686;2023-07-02T11:56:14;24.27;;;10.57;;
25123;SDS011;13104;51.030;4.686;2023-07-02T11:58:40;23.65;;;10.77;;
25123;SDS011;13104;51.030;4.686;2023-07-02T12:01:07;23.88;;;10.35;;
25123;SDS011;13104;51.030;4.686;2023-07-02T12:03:33;27.50;;;10.70;;
25123;SDS011;13104;51.030;4.686;2023-07-02T12:05:59;36.25;;;10.20;;
25123;SDS011;13104;51.030;4.686;2023-07-02T12:08:26;23.63;;;10.20;;
25123;SDS011;13104;51.030;4.686;2023-07-02T12:10:52;25.50;;;9.75;;
25123;SDS011;13104;51.030;4.686;2023-07-02T12:13:18;20.83;;;9.25;;
25123;SDS011;13104;51.030;4.686;2023-07-02T12:15:46;22.83;;;8.20;;
25123;SDS011;13104;51.030;4.686;2023-07-02T12:18:12;21.90;;;8.43;;
25123;SDS011;13104;51.030;4.686;2023-07-02T12:20:41;24.98;;;9.07;;
25123;SDS011;13104;51.030;4.686;2023-07-02T12:23:07;22.65;;;8.63;;
25123;SDS011;13104;51.030;4.686;2023-07-02T12:25:35;23.23;;;8.40;;
25123;SDS011;13104;51.030;4.686;2023-07-02T12:28:02;25.23;;;8.63;;
25123;SDS011;13104;51.030;4.686;2023-07-02T12:30:28;21.60;;;8.40;;
25123;SDS011;13104;51.030;4.686;2023-07-02T12:32:54;20.38;;;8.13;;
25123;SDS011;13104;51.030;4.686;2023-07-02T12:35:20;22.02;;;8.57;;
25123;SDS011;13104;51.030;4.686;2023-07-02T12:37:47;25.95;;;8.90;;
25123;SDS011;13104;51.030;4.686;2023-07-02T12:40:14;21.65;;;9.02;;
25123;SDS011;13104;51.030;4.686;2023-07-02T12:42:41;21.23;;;9.02;;
25123;SDS011;13104;51.030;4.686;2023-07-02T12:45:07;22.52;;;9.75;;
25123;SDS011;13104;51.030;4.686;2023-07-02T12:47:34;23.08;;;9.00;;
25123;SDS011;13104;51.030;4.686;2023-07-02T12:50:01;24.05;;;8.93;;
25123;SDS011;13104;51.030;4.686;2023-07-02T12:52:28;25.63;;;9.25;;
25123;SDS011;13104;51.030;4.686;2023-07-02T12:54:54;26.17;;;9.27;;
25123;SDS011;13104;51.030;4.686;2023-07-02T12:57:20;20.13;;;8.80;;
25123;SDS011;13104;51.030;4.686;2023-07-02T12:59:46;22.13;;;8.85;;
25123;SDS011;13104;51.030;4.686;2023-07-02T13:02:12;24.90;;;9.13;;
25123;SDS011;13104;51.030;4.686;2023-07-02T13:04:38;20.48;;;8.32;;
25123;SDS011;13104;51.030;4.686;2023-07-02T13:07:05;17.85;;;8.45;;
25123;SDS011;13104;51.030;4.686;2023-07-02T13:09:31;22.27;;;8.88;;
25123;SDS011;13104;51.030;4.686;2023-07-02T13:11:57;23.92;;;8.82;;
25123;SDS011;13104;51.030;4.686;2023-07-02T13:14:23;21.63;;;8.32;;
25123;SDS011;13104;51.030;4.686;2023-07-02T13:16:49;19.75;;;8.32;;
25123;SDS011;13104;51.030;4.686;2023-07-02T13:19:16;19.33;;;7.65;;
25123;SDS011;13104;51.030;4.686;2023-07-02T13:21:42;19.80;;;7.90;;
25123;SDS011;13104;51.030;4.686;2023-07-02T13:24:08;19.38;;;7.90;;
25123;SDS011;13104;51.030;4.686;2023-07-02T13:26:34;22.25;;;7.93;;
25123;SDS011;13104;51.030;4.686;2023-07-02T13:29:00;18.25;;;8.07;;
25123;SDS011;13104;51.030;4.686;2023-07-02T13:31:26;19.65;;;7.80;;
25123;SDS011;13104;51.030;4.686;2023-07-02T13:34:06;18.90;;;8.57;;
25123;SDS011;13104;51.030;4.686;2023-07-02T13:36:33;21.42;;;8.40;;
25123;SDS011;13104;51.030;4.686;2023-07-02T13:38:59;19.35;;;8.43;;
25123;SDS011;13104;51.030;4.686;2023-07-02T13:41:25;20.42;;;8.25;;
25123;SDS011;13104;51.030;4.686;2023-07-02T13:43:51;22.92;;;8.07;;
25123;SDS011;13104;51.030;4.686;2023-07-02T13:46:17;20.77;;;8.43;;
25123;SDS011;13104;51.030;4.686;2023-07-02T13:48:43;27.55;;;8.75;;
25123;SDS011;13104;51.030;4.686;2023-07-02T13:51:10;20.65;;;7.45;;
25123;SDS011;13104;51.030;4.686;2023-07-02T13:53:36;21.35;;;8.48;;
25123;SDS011;13104;51.030;4.686;2023-07-02T13:56:02;21.17;;;8.18;;
25123;SDS011;13104;51.030;4.686;2023-07-02T14:01:13;23.83;;;8.02;;
25123;SDS011;13104;51.030;4.686;2023-07-02T14:03:39;18.90;;;7.95;;
25123;SDS011;13104;51.030;4.686;2023-07-02T14:06:06;22.15;;;7.95;;
25123;SDS011;13104;51.030;4.686;2023-07-02T14:08:32;16.45;;;7.25;;
25123;SDS011;13104;51.030;4.686;2023-07-02T14:10:58;24.85;;;8.35;;
25123;SDS011;13104;51.030;4.686;2023-07-02T14:13:24;18.05;;;7.93;;
25123;SDS011;13104;51.030;4.686;2023-07-02T14:15:51;17.13;;;7.72;;
25123;SDS011;13104;51.030;4.686;2023-07-02T14:18:17;17.45;;;7.85;;
25123;SDS011;13104;51.030;4.686;2023-07-02T14:20:43;17.48;;;8.23;;
25123;SDS011;13104;51.030;4.686;2023-07-02T14:23:09;20.35;;;7.82;;
25123;SDS011;13104;51.030;4.686;2023-07-02T14:25:35;25.20;;;8.63;;
25123;SDS011;13104;51.030;4.686;2023-07-02T14:28:01;22.25;;;7.93;;